OAS8520 SKAR-SKBO
Flight info
| Callsign | OAS8520 |
|---|---|
| Flight time | N/A |
| Altitude | 21000 |
| Route | TOLIM4A TOLIM TOLIM5E |
| Aircraft | A320/M-SDE3FGHIRWY/LB1 |
Departure
| Time | 2026-05-05 18:32 |
|---|---|
| Airport | El Eden Airport (SKAR) |
Arrival
| Time | N/A |
|---|---|
| Airport | El Dorado International Airport (SKBO) |
| Time | Latitude | Longitude | Altitude | Speed | Heading |
|---|---|---|---|---|---|
| 2026-05-05 18:10 | 4.45286 | -75.76747 | 3995 ft | 0 kts | 283° |
| 2026-05-05 18:24 | 4.45283 | -75.76736 | 3967 ft | 4 kts | 291° |
| 2026-05-05 18:24 | 4.45269 | -75.76714 | 3964 ft | 4 kts | 330° |
| 2026-05-05 18:24 | 4.45253 | -75.76708 | 3967 ft | 4 kts | 360° |
| 2026-05-05 18:25 | 4.45239 | -75.76709 | 3966 ft | 3 kts | 13° |
| 2026-05-05 18:25 | 4.45236 | -75.76710 | 3967 ft | 0 kts | 13° |
| 2026-05-05 18:27 | 4.45241 | -75.76708 | 3967 ft | 4 kts | 13° |
| 2026-05-05 18:28 | 4.45321 | -75.76689 | 3966 ft | 4 kts | 13° |
| 2026-05-05 18:28 | 4.45342 | -75.76673 | 3966 ft | 6 kts | 51° |
| 2026-05-05 18:28 | 4.45375 | -75.76628 | 3966 ft | 11 kts | 53° |
| 2026-05-05 18:29 | 4.45450 | -75.76566 | 3970 ft | 15 kts | 15° |
| 2026-05-05 18:29 | 4.45538 | -75.76545 | 3972 ft | 12 kts | 13° |
| 2026-05-05 18:29 | 4.45639 | -75.76522 | 3974 ft | 17 kts | 12° |
| 2026-05-05 18:29 | 4.45747 | -75.76495 | 3975 ft | 15 kts | 14° |
| 2026-05-05 18:30 | 4.45835 | -75.76474 | 3974 ft | 12 kts | 13° |
| 2026-05-05 18:30 | 4.45931 | -75.76451 | 3975 ft | 16 kts | 13° |
| 2026-05-05 18:30 | 4.46041 | -75.76426 | 3979 ft | 16 kts | 12° |
| 2026-05-05 18:30 | 4.46140 | -75.76416 | 3979 ft | 13 kts | 351° |
| 2026-05-05 18:31 | 4.46156 | -75.76403 | 3977 ft | 2 kts | 121° |
| 2026-05-05 18:31 | 4.46132 | -75.76401 | 3979 ft | 4 kts | 188° |
| 2026-05-05 18:31 | 4.46128 | -75.76402 | 3979 ft | 0 kts | 191° |
| 2026-05-05 18:32 | 4.45830 | -75.76472 | 3974 ft | 86 kts | 194° |
| 2026-05-05 18:32 | 4.45001 | -75.76674 | 3965 ft | 156 kts | 193° |
| 2026-05-05 18:32 | 4.43845 | -75.76953 | 4494 ft | 174 kts | 194° |
| 2026-05-05 18:32 | 4.42635 | -75.77258 | 5138 ft | 187 kts | 194° |
| 2026-05-05 18:33 | 4.41313 | -75.77576 | 5317 ft | 206 kts | 194° |
| 2026-05-05 18:33 | 4.39878 | -75.77917 | 5706 ft | 211 kts | 195° |
| 2026-05-05 18:33 | 4.38607 | -75.78610 | 6179 ft | 212 kts | 232° |
| 2026-05-05 18:33 | 4.37908 | -75.79897 | 6691 ft | 211 kts | 249° |
| 2026-05-05 18:34 | 4.37418 | -75.81265 | 7164 ft | 212 kts | 252° |
| 2026-05-05 18:34 | 4.36962 | -75.82679 | 7624 ft | 214 kts | 252° |
| 2026-05-05 18:34 | 4.36497 | -75.84109 | 8087 ft | 217 kts | 252° |
| 2026-05-05 18:34 | 4.36019 | -75.85546 | 8544 ft | 219 kts | 251° |
| 2026-05-05 18:35 | 4.35522 | -75.87001 | 8991 ft | 222 kts | 250° |
| 2026-05-05 18:35 | 4.35009 | -75.88470 | 9451 ft | 224 kts | 250° |
| 2026-05-05 18:35 | 4.34484 | -75.89952 | 9931 ft | 227 kts | 249° |
| 2026-05-05 18:35 | 4.34060 | -75.91483 | 10274 ft | 233 kts | 259° |
| 2026-05-05 18:36 | 4.33803 | -75.93148 | 10402 ft | 251 kts | 260° |
| 2026-05-05 18:36 | 4.33528 | -75.94964 | 10536 ft | 276 kts | 260° |
| 2026-05-05 18:36 | 4.33227 | -75.96942 | 10720 ft | 298 kts | 261° |
| 2026-05-05 18:36 | 4.32906 | -75.99043 | 11155 ft | 309 kts | 260° |
| 2026-05-05 18:37 | 4.32575 | -76.01190 | 11772 ft | 314 kts | 260° |
| 2026-05-05 18:37 | 4.32239 | -76.03360 | 12399 ft | 317 kts | 260° |
| 2026-05-05 18:37 | 4.31897 | -76.05560 | 13019 ft | 322 kts | 259° |
| 2026-05-05 18:37 | 4.31781 | -76.07811 | 13604 ft | 328 kts | 279° |
| 2026-05-05 18:38 | 4.32603 | -76.09942 | 14132 ft | 332 kts | 307° |
| 2026-05-05 18:38 | 4.34285 | -76.11499 | 14654 ft | 331 kts | 334° |
| 2026-05-05 18:38 | 4.36440 | -76.12294 | 15219 ft | 330 kts | 346° |
| 2026-05-05 18:38 | 4.38665 | -76.12871 | 15791 ft | 330 kts | 355° |
| 2026-05-05 18:39 | 4.40945 | -76.12831 | 16351 ft | 328 kts | 14° |
| 2026-05-05 18:39 | 4.43069 | -76.12052 | 16908 ft | 325 kts | 33° |
| 2026-05-05 18:39 | 4.44825 | -76.10636 | 17310 ft | 330 kts | 51° |
| 2026-05-05 18:39 | 4.46041 | -76.08651 | 17442 ft | 343 kts | 71° |
| 2026-05-05 18:40 | 4.46510 | -76.06272 | 17579 ft | 356 kts | 90° |
| 2026-05-05 18:40 | 4.46411 | -76.03748 | 17710 ft | 370 kts | 93° |
| 2026-05-05 18:40 | 4.46278 | -76.01130 | 17838 ft | 383 kts | 93° |
| 2026-05-05 18:40 | 4.46145 | -75.98506 | 18456 ft | 380 kts | 92° |
| 2026-05-05 18:41 | 4.46011 | -75.95830 | 18982 ft | 380 kts | 92° |
| 2026-05-05 18:41 | 4.45855 | -75.93216 | 19404 ft | 382 kts | 94° |
| 2026-05-05 18:41 | 4.45613 | -75.90525 | 19834 ft | 384 kts | 95° |
| 2026-05-05 18:41 | 4.45327 | -75.87886 | 20226 ft | 387 kts | 96° |
| 2026-05-05 18:42 | 4.45016 | -75.85196 | 20620 ft | 390 kts | 96° |
| 2026-05-05 18:42 | 4.44700 | -75.82489 | 20974 ft | 393 kts | 96° |
| 2026-05-05 18:42 | 4.44389 | -75.79769 | 21064 ft | 390 kts | 96° |
| 2026-05-05 18:42 | 4.44094 | -75.77095 | 21084 ft | 383 kts | 96° |
| 2026-05-05 18:43 | 4.43810 | -75.74452 | 21083 ft | 380 kts | 96° |
| 2026-05-05 18:43 | 4.43485 | -75.71826 | 21083 ft | 379 kts | 101° |
| 2026-05-05 18:43 | 4.42838 | -75.69265 | 21086 ft | 379 kts | 104° |
| 2026-05-05 18:43 | 4.42154 | -75.66719 | 21085 ft | 379 kts | 104° |
| 2026-05-05 18:44 | 4.41469 | -75.64168 | 21095 ft | 378 kts | 104° |
| 2026-05-05 18:44 | 4.40786 | -75.61622 | 21102 ft | 378 kts | 104° |
| 2026-05-05 18:44 | 4.40105 | -75.59084 | 21105 ft | 377 kts | 104° |
| 2026-05-05 18:44 | 4.39424 | -75.56545 | 21118 ft | 377 kts | 104° |
| 2026-05-05 18:45 | 4.38750 | -75.54006 | 21127 ft | 377 kts | 102° |
| 2026-05-05 18:45 | 4.38423 | -75.51404 | 21138 ft | 376 kts | 90° |
| 2026-05-05 18:45 | 4.38670 | -75.48805 | 21143 ft | 375 kts | 78° |
| 2026-05-05 18:45 | 4.39479 | -75.46329 | 21153 ft | 375 kts | 65° |
| 2026-05-05 18:46 | 4.40715 | -75.44025 | 21139 ft | 375 kts | 62° |
| 2026-05-05 18:46 | 4.41993 | -75.41741 | 21121 ft | 375 kts | 61° |
| 2026-05-05 18:46 | 4.43266 | -75.39463 | 21110 ft | 376 kts | 62° |
| 2026-05-05 18:46 | 4.44543 | -75.37174 | 21102 ft | 376 kts | 62° |
| 2026-05-05 18:47 | 4.45812 | -75.34889 | 21090 ft | 376 kts | 62° |
| 2026-05-05 18:47 | 4.47086 | -75.32597 | 21076 ft | 376 kts | 62° |
| 2026-05-05 18:47 | 4.48357 | -75.30310 | 21067 ft | 376 kts | 62° |
| 2026-05-05 18:47 | 4.49633 | -75.28015 | 21062 ft | 376 kts | 62° |
| 2026-05-05 18:48 | 4.50903 | -75.25727 | 21049 ft | 376 kts | 62° |
| 2026-05-05 18:48 | 4.52177 | -75.23431 | 21045 ft | 377 kts | 62° |
| 2026-05-05 18:48 | 4.53445 | -75.21149 | 20907 ft | 372 kts | 62° |
| 2026-05-05 18:48 | 4.54677 | -75.18940 | 20674 ft | 364 kts | 62° |
| 2026-05-05 18:49 | 4.55897 | -75.16751 | 20443 ft | 356 kts | 62° |
| 2026-05-05 18:49 | 4.57087 | -75.14612 | 20211 ft | 349 kts | 62° |
| 2026-05-05 18:49 | 4.58263 | -75.12491 | 19982 ft | 346 kts | 62° |
| 2026-05-05 18:49 | 4.59431 | -75.10388 | 19756 ft | 345 kts | 62° |